createdAt,value
2019-02-03T00:04:32.005Z,10.50
2019-02-03T00:07:03.469Z,9.57
2019-02-03T00:09:29.632Z,10.30
2019-02-03T00:11:57.669Z,11.90
2019-02-03T00:14:25.742Z,11.37
2019-02-03T00:16:55.445Z,9.20
2019-02-03T00:19:23.481Z,9.30
2019-02-03T00:21:51.418Z,9.43
2019-02-03T00:24:19.463Z,9.30
2019-02-03T00:26:47.502Z,9.83
2019-02-03T00:29:15.469Z,9.10
2019-02-03T00:31:45.113Z,10.20
2019-02-03T00:34:13.042Z,13.50
2019-02-03T00:36:41.032Z,10.40
2019-02-03T00:39:09.535Z,10.57
2019-02-03T00:41:37.650Z,11.50
2019-02-03T00:47:08.075Z,10.97
2019-02-03T00:49:36.100Z,11.10
2019-02-03T00:52:04.174Z,11.60
2019-02-03T00:54:32.331Z,11.97
2019-02-03T00:57:00.328Z,12.43
2019-02-03T00:59:28.385Z,11.40
2019-02-03T01:01:56.362Z,11.07
2019-02-03T01:04:24.442Z,11.43
2019-02-03T01:06:52.672Z,12.10
2019-02-03T01:09:20.999Z,11.37
2019-02-03T01:11:49.069Z,11.07
2019-02-03T01:14:17.016Z,11.20
2019-02-03T01:16:44.984Z,10.97
2019-02-03T01:19:12.976Z,11.00
2019-02-03T01:21:41.012Z,11.57
2019-02-03T01:24:10.687Z,12.17
2019-02-03T01:26:38.696Z,11.80
2019-02-03T01:29:06.702Z,11.20
2019-02-03T01:31:34.766Z,10.80
2019-02-03T01:34:02.838Z,12.73
2019-02-03T01:36:30.908Z,11.70
2019-02-03T01:39:00.931Z,11.40
2019-02-03T01:41:28.968Z,11.80
2019-02-03T01:43:56.933Z,11.13
2019-02-03T01:46:24.932Z,11.87
2019-02-03T01:48:52.961Z,11.13
2019-02-03T01:51:21.024Z,11.00
2019-02-03T01:53:50.689Z,11.63
2019-02-03T01:56:18.728Z,11.10
2019-02-03T01:58:46.766Z,12.33
2019-02-03T02:01:14.778Z,11.70
2019-02-03T02:03:42.761Z,11.60
2019-02-03T02:06:10.826Z,11.47
2019-02-03T02:08:40.578Z,11.13
2019-02-03T02:11:08.500Z,11.27
2019-02-03T02:13:36.584Z,12.27
2019-02-03T02:16:04.704Z,11.80
2019-02-03T02:18:32.710Z,11.20
2019-02-03T02:21:00.697Z,10.93
2019-02-03T02:23:30.418Z,11.20
2019-02-03T02:25:58.504Z,11.07
2019-02-03T02:28:26.530Z,11.20
2019-02-03T02:30:54.516Z,11.07
2019-02-03T02:33:22.604Z,12.97
2019-02-03T02:35:50.668Z,12.73
2019-02-03T02:38:18.622Z,14.87
2019-02-03T02:40:46.634Z,11.60
2019-02-03T02:43:14.683Z,12.47
2019-02-03T02:45:42.748Z,11.07
2019-02-03T02:48:10.708Z,12.60
2019-02-03T02:50:40.230Z,11.60
2019-02-03T02:53:08.603Z,12.50
2019-02-03T02:55:36.558Z,12.00
2019-02-03T02:58:04.768Z,11.33
2019-02-03T03:00:32.816Z,11.27
2019-02-03T03:03:00.853Z,14.57
2019-02-03T03:05:28.848Z,12.80
2019-02-03T03:07:56.891Z,11.50
2019-02-03T03:10:24.861Z,13.07
2019-02-03T03:12:52.902Z,11.90
2019-02-03T03:15:21.251Z,13.50
2019-02-03T03:17:49.483Z,12.30
2019-02-03T03:20:18.401Z,11.90
2019-02-03T03:22:46.462Z,12.50
2019-02-03T03:25:14.941Z,12.40
2019-02-03T03:30:26.378Z,13.07
2019-02-03T03:32:54.495Z,13.07
2019-02-03T03:38:32.198Z,12.87
2019-02-03T03:40:59.703Z,13.07
2019-02-03T03:43:27.883Z,12.50
2019-02-03T03:45:55.924Z,13.83
2019-02-03T03:48:23.923Z,12.70
2019-02-03T03:50:51.965Z,14.80
2019-02-03T03:53:20.231Z,14.43
2019-02-03T03:55:48.230Z,13.90
2019-02-03T03:58:17.828Z,13.87
2019-02-03T04:00:45.865Z,13.47
2019-02-03T04:03:13.867Z,13.10
2019-02-03T04:05:41.878Z,14.13
2019-02-03T04:08:09.899Z,12.70
2019-02-03T04:10:38.068Z,12.90
2019-02-03T04:13:07.800Z,14.10
2019-02-03T04:15:35.874Z,13.57
2019-02-03T04:21:06.764Z,12.93
2019-02-03T04:23:34.800Z,14.60
2019-02-03T04:28:43.213Z,13.27
2019-02-03T04:31:11.189Z,13.40
2019-02-03T04:33:40.887Z,13.50
2019-02-03T04:36:08.865Z,14.13
2019-02-03T04:38:36.840Z,13.63
2019-02-03T04:41:04.820Z,14.70
2019-02-03T04:43:32.896Z,14.60
2019-02-03T04:46:00.938Z,13.87
2019-02-03T04:48:30.608Z,13.83
2019-02-03T04:50:58.652Z,15.47
2019-02-03T04:53:26.623Z,15.67
2019-02-03T04:55:54.704Z,15.57
2019-02-03T04:58:22.642Z,15.10
2019-02-03T05:00:50.727Z,16.10
2019-02-03T05:03:20.407Z,15.83
2019-02-03T05:05:48.399Z,15.27
2019-02-03T05:08:16.597Z,14.83
2019-02-03T05:10:44.540Z,14.60
2019-02-03T05:13:12.813Z,16.00
2019-02-03T05:15:40.778Z,14.13
2019-02-03T05:18:10.445Z,13.47
2019-02-03T05:20:38.475Z,14.60
2019-02-03T05:25:48.492Z,15.33
2019-02-03T05:28:16.557Z,14.20
2019-02-03T05:30:46.204Z,14.27
2019-02-03T05:33:14.215Z,14.37
2019-02-03T05:35:42.158Z,14.60
2019-02-03T05:38:10.222Z,14.93
2019-02-03T05:40:38.193Z,14.97
2019-02-03T05:43:06.157Z,14.03
2019-02-03T05:45:35.857Z,15.53
2019-02-03T05:48:03.820Z,13.93
2019-02-03T05:50:31.870Z,15.00
2019-02-03T05:52:59.875Z,14.10
2019-02-03T05:55:27.892Z,14.73
2019-02-03T05:57:55.926Z,15.50
2019-02-03T06:00:45.449Z,14.13
2019-02-03T06:03:13.494Z,14.20
2019-02-03T06:05:41.556Z,13.67
2019-02-03T06:08:09.599Z,13.17
2019-02-03T06:10:37.596Z,14.80
2019-02-03T06:13:05.566Z,14.40
2019-02-03T06:15:33.630Z,14.50
2019-02-03T06:18:01.586Z,15.20
2019-02-03T06:20:29.671Z,15.80
2019-02-03T06:22:57.606Z,15.50
2019-02-03T06:25:25.607Z,16.90
2019-02-03T06:27:53.691Z,15.13
2019-02-03T06:30:40.984Z,14.83
2019-02-03T06:33:08.944Z,15.07
2019-02-03T06:35:36.920Z,17.07
2019-02-03T06:38:06.639Z,14.30
2019-02-03T06:40:34.694Z,14.40
2019-02-03T06:43:02.667Z,14.40
2019-02-03T06:45:49.694Z,13.70
2019-02-03T06:51:08.484Z,15.10
2019-02-03T06:53:36.547Z,23.00
2019-02-03T06:56:04.520Z,21.53
2019-02-03T06:58:32.472Z,16.47
2019-02-03T07:01:00.457Z,15.77
2019-02-03T07:03:28.509Z,16.13
2019-02-03T07:05:56.499Z,15.50
2019-02-03T07:08:24.555Z,14.57
2019-02-03T07:10:52.647Z,15.80
2019-02-03T07:13:20.690Z,15.87
2019-02-03T07:15:50.332Z,14.30
2019-02-03T07:18:18.403Z,15.77
2019-02-03T07:20:46.754Z,15.67
2019-02-03T07:23:14.720Z,15.50
2019-02-03T07:25:42.797Z,15.80
2019-02-03T07:28:11.153Z,13.43
2019-02-03T07:30:40.763Z,15.97
2019-02-03T07:33:08.732Z,14.33
2019-02-03T07:35:36.738Z,15.77
2019-02-03T07:38:04.793Z,14.57
2019-02-03T07:40:32.761Z,14.30
2019-02-03T07:43:00.906Z,14.07
2019-02-03T07:45:28.886Z,16.33
2019-02-03T07:47:56.985Z,20.77
2019-02-03T07:50:25.034Z,15.00
2019-02-03T07:52:53.019Z,15.10
2019-02-03T07:55:20.989Z,14.57
2019-02-03T07:57:48.997Z,15.43
2019-02-03T08:00:18.696Z,14.30
2019-02-03T08:02:46.731Z,14.43
2019-02-03T08:05:14.811Z,15.67
2019-02-03T08:07:42.887Z,15.40
2019-02-03T08:10:31.328Z,13.33
2019-02-03T08:12:59.408Z,18.57
2019-02-03T08:15:27.452Z,15.20
2019-02-03T08:17:55.460Z,12.90
2019-02-03T08:20:23.689Z,25.90
2019-02-03T08:22:51.720Z,25.53
2019-02-03T08:25:19.774Z,18.07
2019-02-03T08:27:49.461Z,19.47
2019-02-03T08:33:21.649Z,18.37
2019-02-03T08:35:49.910Z,16.30
2019-02-03T08:38:17.980Z,17.20
2019-02-03T08:40:45.957Z,15.87
2019-02-03T08:43:13.951Z,14.80
2019-02-03T08:45:41.939Z,15.27
2019-02-03T08:48:10.432Z,15.67
2019-02-03T08:50:40.121Z,16.00
2019-02-03T08:53:08.161Z,16.70
2019-02-03T08:55:36.155Z,15.20
2019-02-03T08:58:04.114Z,15.53
2019-02-03T09:00:32.132Z,13.93
2019-02-03T09:03:00.136Z,16.07
2019-02-03T09:05:29.879Z,15.80
2019-02-03T09:10:48.436Z,15.97
2019-02-03T09:13:11.686Z,15.50
2019-02-03T09:15:39.640Z,15.53
2019-02-03T09:18:08.046Z,15.60
2019-02-03T09:20:36.123Z,15.20
2019-02-03T09:26:08.690Z,25.37
2019-02-03T09:28:36.481Z,15.07
2019-02-03T09:34:07.052Z,15.30
2019-02-03T09:36:34.977Z,14.77
2019-02-03T09:41:52.070Z,15.87
2019-02-03T09:44:20.781Z,15.63
2019-02-03T09:46:48.808Z,13.13
2019-02-03T09:49:16.845Z,13.80
2019-02-03T09:51:44.919Z,14.17
2019-02-03T09:54:12.973Z,13.20
2019-02-03T09:56:40.996Z,13.00
2019-02-03T09:59:09.075Z,13.23
2019-02-03T10:01:37.184Z,14.37
2019-02-03T10:04:05.416Z,13.20
2019-02-03T10:06:33.449Z,14.83
2019-02-03T10:09:01.427Z,14.87
2019-02-03T10:11:29.511Z,14.27
2019-02-03T10:13:58.083Z,13.40
2019-02-03T10:16:26.052Z,12.57
2019-02-03T10:18:54.126Z,13.10
2019-02-03T10:21:22.209Z,13.67
2019-02-03T10:23:50.271Z,12.40
2019-02-03T10:26:18.343Z,12.20
2019-02-03T10:28:46.812Z,13.43
2019-02-03T10:31:35.141Z,13.20
2019-02-03T10:34:03.170Z,13.40
2019-02-03T10:36:31.274Z,12.80
2019-02-03T10:38:59.489Z,12.83
2019-02-03T10:41:29.172Z,13.30
2019-02-03T10:43:57.160Z,13.40
2019-02-03T10:46:25.112Z,15.30
2019-02-03T10:48:53.077Z,14.80
2019-02-03T10:51:21.077Z,15.50
2019-02-03T10:53:49.116Z,14.17
2019-02-03T10:56:17.104Z,14.67
2019-02-03T10:58:46.141Z,14.67
2019-02-03T11:03:59.246Z,13.83
2019-02-03T11:09:10.155Z,13.97
2019-02-03T11:11:38.292Z,15.17
2019-02-03T11:14:06.484Z,15.40
2019-02-03T11:16:34.561Z,13.83
2019-02-03T11:19:02.638Z,15.30
2019-02-03T11:21:30.621Z,14.90
2019-02-03T11:23:58.639Z,16.03
2019-02-03T11:26:26.671Z,14.83
2019-02-03T11:28:54.691Z,15.73
2019-02-03T11:34:06.320Z,16.23
2019-02-03T11:36:34.408Z,15.47
2019-02-03T11:39:02.789Z,16.33
2019-02-03T11:41:31.108Z,15.50
2019-02-03T11:43:59.088Z,15.10
2019-02-03T11:46:27.056Z,14.97
2019-02-03T11:48:55.278Z,14.90
2019-02-03T11:51:23.341Z,15.03
2019-02-03T11:53:51.812Z,14.73
2019-02-03T11:56:20.002Z,15.37
2019-02-03T11:58:48.063Z,15.60
2019-02-03T12:01:16.675Z,15.03
2019-02-03T12:03:45.814Z,15.37
2019-02-03T12:06:13.892Z,15.37
2019-02-03T12:08:42.101Z,23.17
2019-02-03T12:13:52.783Z,15.80
2019-02-03T12:16:20.833Z,15.60
2019-02-03T12:18:48.931Z,17.30
2019-02-03T12:21:17.124Z,15.90
2019-02-03T12:23:46.033Z,16.20
2019-02-03T12:26:14.063Z,15.40
2019-02-03T12:28:42.175Z,15.20
2019-02-03T12:31:10.192Z,14.50
2019-02-03T12:33:38.548Z,14.37
2019-02-03T12:36:06.817Z,15.43
2019-02-03T12:38:34.843Z,15.90
2019-02-03T12:41:02.861Z,15.50
2019-02-03T12:43:31.018Z,15.47
2019-02-03T12:45:59.170Z,17.03
2019-02-03T12:48:27.220Z,17.10
2019-02-03T12:50:55.372Z,16.00
2019-02-03T12:53:23.376Z,14.77
2019-02-03T12:55:51.431Z,16.90
2019-02-03T12:58:19.762Z,18.07
2019-02-03T13:00:49.696Z,16.83
2019-02-03T13:03:19.141Z,14.63
2019-02-03T13:05:48.861Z,16.40
2019-02-03T13:08:16.936Z,15.30
2019-02-03T13:10:45.082Z,14.93
2019-02-03T13:13:13.228Z,15.37
2019-02-03T13:16:00.260Z,15.33
2019-02-03T13:18:28.334Z,15.30
2019-02-03T13:20:56.474Z,24.60
2019-02-03T13:23:24.894Z,15.43
2019-02-03T13:25:53.044Z,16.57
2019-02-03T13:28:21.128Z,27.80
2019-02-03T13:30:51.297Z,21.87
2019-02-03T13:33:21.484Z,18.87
2019-02-03T13:35:49.193Z,15.47
2019-02-03T13:38:17.347Z,15.23
2019-02-03T13:40:45.441Z,15.27
2019-02-03T13:43:13.918Z,13.90
2019-02-03T13:45:44.842Z,15.50
2019-02-03T13:48:11.935Z,15.90
2019-02-03T13:50:40.044Z,14.23
2019-02-03T13:53:08.129Z,8.60
2019-02-03T13:55:36.120Z,7.87
2019-02-03T13:58:04.198Z,6.90
2019-02-03T14:00:33.242Z,6.87
2019-02-03T14:03:01.301Z,6.70
2019-02-03T14:05:29.442Z,6.00
2019-02-03T14:07:57.619Z,6.50
2019-02-03T14:10:29.536Z,6.37
2019-02-03T14:12:59.391Z,7.83
2019-02-03T14:15:27.494Z,6.30
2019-02-03T14:17:55.557Z,6.70
2019-02-03T14:20:24.856Z,6.80
2019-02-03T14:22:53.125Z,7.07
2019-02-03T14:25:21.251Z,6.20
2019-02-03T14:27:51.013Z,6.33
2019-02-03T14:30:40.889Z,6.30
2019-02-03T14:33:07.862Z,6.43
2019-02-03T14:35:35.948Z,6.93
2019-02-03T14:38:06.141Z,6.77
2019-02-03T14:40:34.223Z,6.50
2019-02-03T14:43:02.531Z,5.77
2019-02-03T14:45:31.864Z,5.90
2019-02-03T14:47:59.942Z,6.97
2019-02-03T14:50:28.000Z,6.30
2019-02-03T14:52:56.316Z,8.23
2019-02-03T14:55:25.764Z,6.57
2019-02-03T14:57:53.763Z,6.27
2019-02-03T15:00:23.176Z,6.47
2019-02-03T15:02:51.240Z,6.93
2019-02-03T15:05:20.189Z,7.07
2019-02-03T15:07:49.053Z,6.60
2019-02-03T15:10:17.176Z,6.70
2019-02-03T15:12:45.222Z,6.53
2019-02-03T15:15:14.273Z,6.70
2019-02-03T15:17:42.324Z,7.03
2019-02-03T15:20:11.426Z,9.17
2019-02-03T15:22:39.583Z,6.93
2019-02-03T15:25:07.612Z,5.97
2019-02-03T15:27:35.795Z,6.70
2019-02-03T15:30:24.148Z,6.30
2019-02-03T15:32:52.356Z,6.10
2019-02-03T15:35:20.340Z,6.00
2019-02-03T15:37:48.458Z,6.77
2019-02-03T15:40:17.182Z,6.50
2019-02-03T15:42:45.356Z,7.07
2019-02-03T15:45:14.170Z,6.50
2019-02-03T15:47:42.264Z,6.50
2019-02-03T15:50:11.748Z,6.20
2019-02-03T15:52:39.818Z,6.33
2019-02-03T15:55:09.112Z,6.50
2019-02-03T15:57:37.437Z,6.57
2019-02-03T16:05:56.661Z,6.73
2019-02-03T16:08:24.652Z,6.07
2019-02-03T16:10:52.726Z,6.20
2019-02-03T16:13:20.726Z,6.07
2019-02-03T16:15:48.798Z,6.20
2019-02-03T16:18:16.737Z,6.10
2019-02-03T16:20:44.722Z,6.30
2019-02-03T16:23:12.767Z,6.40
2019-02-03T16:25:40.731Z,5.90
2019-02-03T16:28:08.729Z,6.13
2019-02-03T16:30:38.545Z,6.03
2019-02-03T16:33:09.175Z,6.20
2019-02-03T16:35:36.455Z,6.87
2019-02-03T16:38:04.614Z,6.40
2019-02-03T16:40:32.673Z,6.13
2019-02-03T16:43:00.868Z,5.90
2019-02-03T16:45:28.917Z,6.33
2019-02-03T16:47:57.013Z,6.13
2019-02-03T16:50:27.644Z,6.20
2019-02-03T16:55:58.516Z,6.10
2019-02-03T16:58:28.196Z,6.27
2019-02-03T17:00:56.221Z,6.07
2019-02-03T17:03:24.208Z,6.40
2019-02-03T17:05:52.421Z,6.70
2019-02-03T17:08:20.469Z,5.80
2019-02-03T17:10:48.434Z,5.80
2019-02-03T17:13:16.398Z,7.30
2019-02-03T17:15:45.906Z,6.60
2019-02-03T17:18:13.983Z,6.30
2019-02-03T17:20:41.954Z,6.03
2019-02-03T17:23:10.019Z,6.87
2019-02-03T17:25:39.584Z,6.00
2019-02-03T17:28:07.586Z,6.90
2019-02-03T17:30:35.679Z,6.00
2019-02-03T17:33:03.804Z,6.13
2019-02-03T17:35:31.911Z,8.90
2019-02-03T17:37:59.987Z,10.23
2019-02-03T17:40:28.067Z,6.20
2019-02-03T17:42:56.125Z,6.23
2019-02-03T17:45:26.050Z,6.30
2019-02-03T17:47:54.067Z,7.00
2019-02-03T17:50:40.988Z,5.80
2019-02-03T17:53:09.029Z,6.20
2019-02-03T17:55:37.047Z,6.93
2019-02-03T17:58:05.219Z,7.00
2019-02-03T18:00:52.286Z,6.50
2019-02-03T18:06:02.397Z,6.90
2019-02-03T18:08:30.389Z,6.70
2019-02-03T18:10:58.445Z,6.33
2019-02-03T18:13:26.404Z,6.07
2019-02-03T18:18:36.478Z,6.57
2019-02-03T18:24:06.998Z,6.53
2019-02-03T18:26:35.121Z,7.13
2019-02-03T18:29:03.225Z,6.33
2019-02-03T18:31:31.253Z,6.87
2019-02-03T18:33:59.280Z,6.10
2019-02-03T18:36:27.382Z,6.60
2019-02-03T18:38:55.398Z,6.37
2019-02-03T18:41:25.065Z,5.90
2019-02-03T18:43:53.060Z,5.80
2019-02-03T18:46:21.156Z,6.50
2019-02-03T18:48:49.213Z,6.30
2019-02-03T18:51:17.278Z,6.20
2019-02-03T18:53:45.383Z,6.60
2019-02-03T18:56:13.401Z,6.13
2019-02-03T18:58:41.428Z,6.60
2019-02-03T19:01:23.185Z,6.07
2019-02-03T19:03:51.253Z,6.60
2019-02-03T19:06:19.327Z,6.13
2019-02-03T19:08:47.738Z,6.33
2019-02-03T19:13:57.858Z,6.17
2019-02-03T19:16:25.882Z,5.80
2019-02-03T19:18:53.912Z,6.00
2019-02-03T19:21:23.885Z,6.90
2019-02-03T19:23:51.778Z,5.97
2019-02-03T19:26:19.789Z,6.07
2019-02-03T19:28:47.855Z,6.00
2019-02-03T19:31:15.809Z,6.20
2019-02-03T19:33:43.799Z,6.60
2019-02-03T19:36:11.859Z,6.27
2019-02-03T19:38:39.887Z,6.53
2019-02-03T19:43:49.958Z,6.50
2019-02-03T19:46:17.984Z,6.53
2019-02-03T19:48:46.011Z,6.33
2019-02-03T19:51:13.989Z,7.20
2019-02-03T19:53:42.014Z,6.40
2019-02-03T19:56:10.045Z,6.47
2019-02-03T19:58:38.131Z,6.57
2019-02-03T20:01:06.172Z,6.40
2019-02-03T20:06:16.546Z,6.67
2019-02-03T20:08:44.656Z,6.07
2019-02-03T20:11:12.701Z,6.40
2019-02-03T20:13:40.754Z,6.47
2019-02-03T20:16:08.861Z,6.27
2019-02-03T20:18:36.996Z,6.10
2019-02-03T20:21:04.985Z,6.30
2019-02-03T20:23:33.063Z,6.30
2019-02-03T20:26:01.145Z,6.70
2019-02-03T20:28:29.188Z,6.70
2019-02-03T20:30:57.156Z,5.70
2019-02-03T20:33:26.880Z,6.43
2019-02-03T20:35:54.881Z,6.80
2019-02-03T20:38:22.970Z,7.10
2019-02-03T20:40:50.996Z,6.33
2019-02-03T20:43:19.179Z,6.27
2019-02-03T20:45:49.803Z,6.70
2019-02-03T20:48:16.923Z,7.03
2019-02-03T20:50:44.922Z,6.80
2019-02-03T20:53:13.016Z,6.50
2019-02-03T20:55:40.937Z,6.53
2019-02-03T20:58:08.914Z,7.03
2019-02-03T21:00:57.354Z,6.70
2019-02-03T21:03:25.354Z,6.40
2019-02-03T21:05:53.408Z,6.80
2019-02-03T21:08:21.457Z,7.20
2019-02-03T21:10:49.512Z,6.60
2019-02-03T21:13:17.525Z,6.77
2019-02-03T21:15:45.482Z,6.80
2019-02-03T21:18:13.460Z,6.97
2019-02-03T21:23:44.130Z,7.30
2019-02-03T21:26:16.370Z,6.30
2019-02-03T21:28:42.732Z,7.00
2019-02-03T21:31:11.493Z,7.07
2019-02-03T21:39:01.946Z,7.50
2019-02-03T21:41:29.997Z,8.00
2019-02-03T21:43:58.012Z,6.73
2019-02-03T21:46:26.043Z,6.27
2019-02-03T21:48:53.961Z,6.90
2019-02-03T21:51:21.849Z,6.60
2019-02-03T21:53:49.838Z,6.53
2019-02-03T21:56:17.802Z,6.87
2019-02-03T21:58:45.760Z,6.17
2019-02-03T22:01:13.757Z,7.97
2019-02-03T22:03:41.811Z,6.93
2019-02-03T22:06:11.472Z,7.17
2019-02-03T22:08:39.380Z,7.40
2019-02-03T22:11:07.451Z,6.90
2019-02-03T22:13:35.423Z,6.70
2019-02-03T22:16:03.387Z,6.70
2019-02-03T22:21:13.480Z,6.23
2019-02-03T22:23:41.540Z,7.20
2019-02-03T22:26:09.522Z,6.80
2019-02-03T22:28:37.580Z,6.40
2019-02-03T22:31:05.554Z,6.67
2019-02-03T22:33:35.192Z,6.20
2019-02-03T22:36:03.279Z,7.00
2019-02-03T22:38:31.311Z,6.60
2019-02-03T22:40:59.402Z,6.50
2019-02-03T22:43:27.465Z,6.40
2019-02-03T22:46:06.501Z,6.93
2019-02-03T22:48:25.244Z,6.77
2019-02-03T22:50:53.346Z,6.73
2019-02-03T22:53:21.388Z,7.00
2019-02-03T22:55:49.452Z,6.90
2019-02-03T22:58:17.534Z,6.40
2019-02-03T23:04:23.102Z,7.83
2019-02-03T23:06:51.121Z,6.70
2019-02-03T23:09:38.442Z,7.03
2019-02-03T23:12:07.402Z,7.70
2019-02-03T23:14:35.453Z,6.70
2019-02-03T23:17:03.531Z,6.70
2019-02-03T23:19:31.508Z,6.30
2019-02-03T23:21:59.431Z,6.80
2019-02-03T23:24:27.437Z,6.80
2019-02-03T23:26:55.487Z,6.77
2019-02-03T23:29:23.510Z,6.93
2019-02-03T23:31:51.631Z,6.77
2019-02-03T23:37:01.844Z,6.73
2019-02-03T23:39:29.910Z,6.70
2019-02-03T23:41:57.877Z,7.13
2019-02-03T23:44:26.019Z,8.07
2019-02-03T23:46:54.015Z,7.07
2019-02-03T23:49:22.058Z,6.73
2019-02-03T23:51:50.056Z,7.43
2019-02-03T23:54:18.101Z,7.10
2019-02-03T23:56:46.270Z,7.30
2019-02-03T23:59:14.243Z,7.27
